Etusivu
METAR-TAF:

METAR-TAF

Lentoasemat :

Enfidha

Hammamet, Tunisia

Leveyspiiri: 36-04-34N, Pituuspiiri: 10-26-19E, korkeus merenpinnasta: 6 m

METAR: puuttuu

Aika: 11:27 (10:27 UTC)

Sääennuste

Tämä raportti tehtiin 5 tuntia ja 27 minuuttia sitten, kello 05.00 UTC
Ennuste voimassa 12. päivästä klo 06 UTC - 13. päivään klo 06 UTC
Tuuli 3 kn eri suunnista
Näkyvyys 10 km tai enemmän
ei pilviä alle 1500 m:ssä eikä cumulonimbus-pilviä
Tulossa
12. päivästä klo 10 UTC - 12. päivään klo 12 UTC
Tuuli 10 kn idästä
Tulossa
12. päivästä klo 19 UTC - 12. päivään klo 21 UTC
Tuuli 5 kn pohjoisesta/koillisesta

TAF: DTNH 120500Z 1206/1306 VRB03KT CAVOK BECMG 1210/1212 10010KT BECMG 1219/1221 03005KT

Säähavainnot ja -ennusteet yli 4000 lentoasemalta (METAR- ja TAF-raportit).

Käytössä olevat sääasemat on merkitty karttaan keltaisilla ja punaisilla pisteillä.

Aseta hiiri pisteen päälle nähdäksesi sääaseman nimen.

Klikkaa sitten nähdäksesi säähavainnot ja -ennusteet.

Kartan vaihtaminen: klikkaa mustalla rastilla varustettuja vihreitä pisteitä, niin voit zoomata sisään; viivalla varustettua vihreää pistettä, niin voit zoomata ulos tai vihreitä nuolia, niin pääset viereisille kartoille.


METAR-TAF: